ADDS METAR Data INFO
IDs: Format: Raw Decoded Include TAF

Data at: 0834 UTC 21 Oct 2017

KMCC 210815Z AUTO 00000KT 9SM CLR 08/07 A3016 RMK AO2
KMCC 210755Z AUTO 00000KT 6SM BR CLR 08/07 A3017 RMK AO2
KMCC 210735Z AUTO 00000KT 9SM CLR 09/07 A3016 RMK AO2
KMCC 210715Z AUTO 00000KT 10SM CLR 09/07 A3017 RMK AO2
KMCC 210655Z AUTO 00000KT 10SM CLR 10/07 A3017 RMK AO2
KMCC 210635Z AUTO 00000KT 10SM CLR 10/07 A3016 RMK AO2
KMCC 210615Z AUTO 05004KT 7SM CLR 11/07 A3016 RMK AO2
KMCC 210555Z AUTO 00000KT 8SM CLR 10/06 A3016 RMK AO2
KMCC 210535Z AUTO 00000KT 3SM HZ CLR 10/06 A3015 RMK AO2
KMCC 210510Z AUTO 10003KT 10SM CLR 12/07 A3014 RMK AO2
KMCC 210450Z AUTO 17003KT 8SM CLR 11/06 A3014 RMK AO2
KMCC 210430Z AUTO 00000KT 10SM CLR 11/06 A3013 RMK AO2
KMCC 210410Z AUTO 00000KT 10SM CLR 10/06 A3013 RMK AO2
KMCC 210350Z AUTO 00000KT 10SM CLR 12/06 A3013 RMK AO2
KMCC 210330Z AUTO 00000KT 10SM CLR 12/06 A3011 RMK AO2
KMCC 210310Z AUTO 06003KT 10SM CLR 12/06 A3011 RMK AO2
KMCC 210250Z AUTO 10004KT 10SM CLR 13/07 A3011 RMK AO2
KMCC 210230Z AUTO 00000KT 9SM CLR 13/06 A3011 RMK AO2
KMCC 210210Z AUTO 06003KT 10SM CLR 13/05 A3010 RMK AO2
KMCC 210150Z AUTO 03004KT 10SM CLR 14/04 A3010 RMK AO2
KMCC 210130Z AUTO 00000KT 10SM CLR 14/04 A3009 RMK AO2
KMCC 210110Z AUTO 00000KT 10SM CLR 15/04 A3009 RMK AO2
KMCC 210050Z AUTO 00000KT 10SM CLR 16/04 A3009 RMK AO2
KMCC 210030Z AUTO 00000KT 10SM CLR 16/04 A3009 RMK AO2
KMCC 210010Z AUTO 30004KT 10SM CLR 17/05 A3009 RMK AO2
KMCC 202350Z AUTO 00000KT 10SM CLR 17/05 A3010 RMK AO2
KMCC 202335Z AUTO 00000KT 10SM CLR 17/05 A3010 RMK AO2
KMCC 202310Z AUTO 27004KT 10SM CLR 17/05 A3009 RMK AO2
KMCC 202250Z AUTO 26004KT 10SM CLR 17/04 A3009 RMK AO2
KMCC 202230Z AUTO 20006KT 9SM FEW043 17/05 A3009 RMK AO2
KMCC 202210Z AUTO 23006KT 9SM FEW043 17/05 A3009 RMK AO2
KMCC 202155Z AUTO 26005KT 10SM CLR 17/05 A3009 RMK AO2
KMCC 202130Z AUTO 22004KT 10SM SCT043 17/05 A3009 RMK AO2
KMCC 202110Z AUTO 19007KT 10SM SCT041 17/05 A3009 RMK AO2
KMCC 202050Z AUTO 23008KT 9SM FEW039 17/06 A3009 RMK AO2
KMCC 202030Z AUTO 16006KT 9SM SCT039 17/06 A3009 RMK AO2
KMCC 202010Z AUTO 20003KT 9SM FEW037 16/07 A3009 RMK AO2
KMCC 201950Z AUTO 16005KT 9SM CLR 15/07 A3010 RMK AO2
KMCC 201930Z AUTO 14007KT 10SM CLR 15/07 A3009 RMK AO2
KMCC 201910Z AUTO 16007KT 9SM CLR 15/08 A3009 RMK AO2
KMCC 201850Z AUTO 18005KT 8SM CLR 14/08 A3010 RMK AO2
KMCC 201830Z AUTO 15005KT 9SM CLR 14/08 A3010 RMK AO2
KMCC 201810Z AUTO 00000KT 10SM CLR 14/09 A3010 RMK AO2
KMCC 201750Z AUTO 18007KT 8SM CLR 13/09 A3010 RMK AO2
KMCC 201730Z AUTO 16006KT 8SM CLR 13/10 A3009 RMK AO2
KMCC 201710Z AUTO 15005KT 9SM CLR 13/09 A3009 RMK AO2
KMCC 201650Z AUTO 15005KT 9SM CLR 12/09 A3009 RMK AO2
KMCC 201630Z AUTO 16005KT 9SM CLR 12/09 A3008 RMK AO2
KMCC 201610Z AUTO 18006KT 9SM CLR 12/09 A3008 RMK AO2
KMCC 201550Z AUTO 19007KT 9SM CLR 12/09 A3007 RMK AO2
KMCC 201530Z AUTO 17007KT 10SM CLR 10/09 A3006 RMK AO2
KMCC 201510Z AUTO 15006KT 9SM CLR 10/09 A3005 RMK AO2
KMCC 201450Z AUTO 15007KT 9SM CLR 09/09 A3005 RMK AO2
KMCC 201430Z AUTO 14007KT 9SM CLR 09/08 A3004 RMK AO2
KMCC 201410Z AUTO 16006KT 10SM CLR 09/08 A3003 RMK AO2
KMCC 201350Z AUTO 11006KT 10SM CLR 10/09 A3002 RMK AO2
KMCC 201330Z AUTO 16006KT 10SM CLR 10/08 A3002 RMK AO2
KMCC 201310Z AUTO 19003KT 10SM CLR 10/08 A3002 RMK AO2
KMCC 201250Z AUTO 12006KT 10SM CLR 10/09 A3002 RMK AO2
KMCC 201230Z AUTO 18004KT 10SM CLR 10/09 A3000 RMK AO2
KMCC 201210Z AUTO 12006KT 10SM CLR 11/09 A3000 RMK AO2
KMCC 201150Z AUTO 19004KT 10SM CLR 11/10 A2998 RMK AO2
KMCC 201130Z AUTO 07008KT 10SM CLR 12/08 A2998 RMK AO2
KMCC 201110Z AUTO 25006KT 10SM CLR 12/07 A2996 RMK AO2
KMCC 201050Z AUTO 19003KT 10SM CLR 12/09 A2995 RMK AO2
KMCC 201030Z AUTO 18004KT 10SM CLR 12/09 A2995 RMK AO2
KMCC 201010Z AUTO 18005KT 10SM FEW120 12/10 A2995 RMK AO2
KMCC 200950Z AUTO 17006KT 10SM CLR 12/09 A2992 RMK AO2
KMCC 200930Z AUTO 17006KT 10SM FEW029 SCT046 12/10 A2991 RMK AO2
KMCC 200910Z AUTO 20004KT 10SM -RA FEW029 BKN046 OVC060 12/09 A2990 RMK AO2
KMCC 200850Z AUTO 22004KT 5SM -RA SCT031 BKN048 OVC060 12/10 A2988 RMK AO2
KMCC 200830Z AUTO 28007KT 4SM -RA FEW022 BKN033 OVC060 12/09 A2988 RMK AO2
KMCC 200810Z AUTO 28013G21KT 3SM -RA SCT017 BKN031 OVC055 13/10 A2988 RMK AO2
KMCC 200750Z AUTO 29021G37KT 1 1/2SM -RA SCT001 BKN019 OVC029 14/11 A2985 RMK AO2
KMCC 200730Z AUTO 19015G21KT 2 1/2SM -RA FEW018 SCT027 BKN046 16/13 A2982 RMK AO2
KMCC 200710Z AUTO 18013G19KT 10SM SCT035 SCT047 OVC060 17/12 A2982 RMK AO2
KMCC 200650Z AUTO 16016G22KT 10SM SCT034 BKN041 OVC055 17/12 A2982 RMK AO2
KMCC 200630Z AUTO 14015G21KT 10SM FEW041 OVC065 17/11 A2982 RMK AO2
KMCC 200610Z AUTO 15016G20KT 10SM FEW020 BKN065 BKN120 16/11 A2982 RMK AO2
KMCC 200550Z AUTO 15012KT 10SM BKN018 16/11 A2984 RMK AO2
KMCC 200530Z AUTO 14010KT 10SM OVC018 16/12 A2986 RMK AO2
KMCC 200510Z AUTO 13010KT 10SM BKN018 OVC027 16/12 A2986 RMK AO2
KMCC 200450Z AUTO 16009KT 10SM FEW018 BKN026 OVC060 16/12 A2987 RMK AO2
KMCC 200430Z AUTO 17010KT 10SM FEW019 SCT032 BKN037 16/12 A2987 RMK AO2
KMCC 200410Z AUTO 18014KT 10SM FEW018 SCT046 BKN065 16/12 A2988 RMK AO2
KMCC 200350Z AUTO 20011KT 10SM FEW016 OVC065 16/12 A2988 RMK AO2
KMCC 200330Z AUTO 20011G16KT 10SM FEW016 OVC065 16/12 A2989 RMK AO2
KMCC 200310Z AUTO 19010KT 10SM OVC065 16/12 A2988 RMK AO2
KMCC 200250Z AUTO 20012G18KT 10SM OVC075 16/12 A2988 RMK AO2
KMCC 200230Z AUTO 20012G17KT 10SM OVC075 17/11 A2988 RMK AO2
KMCC 200210Z AUTO 20009G15KT 10SM OVC075 17/11 A2988 RMK AO2
KMCC 200150Z AUTO 20012G19KT 10SM SCT060 BKN075 17/11 A2987 RMK AO2
KMCC 200130Z AUTO 21012G16KT 10SM BKN060 OVC075 18/11 A2987 RMK AO2
KMCC 200110Z AUTO 20013G18KT 10SM BKN060 OVC070 18/11 A2987 RMK AO2
KMCC 200050Z AUTO 19012KT 10SM BKN070 18/10 A2987 RMK AO2
KMCC 200030Z AUTO 20014G20KT 10SM BKN070 18/10 A2986 RMK AO2
KMCC 200010Z AUTO 21015KT 10SM BKN070 19/10 A2987 RMK AO2
KMCC 192350Z AUTO 19013G23KT 9SM FEW048 BKN070 19/10 A2988 RMK AO2
KMCC 192330Z AUTO 21014G19KT 9SM BKN046 OVC070 19/10 A2988 RMK AO2
KMCC 192310Z AUTO 19015G20KT 10SM BKN046 BKN070 19/10 A2988 RMK AO2
KMCC 192250Z AUTO 18015G20KT 9SM SCT044 BKN070 20/10 A2988 RMK AO2
KMCC 192230Z AUTO 21015G18KT 9SM BKN046 20/10 A2989 RMK AO2
KMCC 192210Z AUTO 19012G19KT 9SM OVC046 22/10 A2989 RMK AO2
KMCC 192150Z AUTO 20013KT 9SM BKN042 20/10 A2989 RMK AO2
KMCC 192130Z AUTO 19012G19KT 10SM BKN040 21/11 A2989 RMK AO2
KMCC 192110Z AUTO 20011KT 170V230 10SM BKN040 22/11 A2990 RMK AO2
KMCC 192050Z AUTO 20013G16KT 10SM BKN042 22/10 A2991 RMK AO2